TimeCDT,TemperatureF,Dew PointF,Humidity,Sea Level PressureIn,VisibilityMPH,Wind Direction,Wind SpeedMPH,Gust SpeedMPH,PrecipitationIn,Events,Conditions,WindDirDegrees,DateUTC
12:58 AM,64.6,52.5,65,30.02,10.0,NNW,10.4,17.3,N/A,,Clear,340,2013-09-20 05:58:00
1:58 AM,63.0,51.4,66,30.00,10.0,North,8.1,-,N/A,,Clear,10,2013-09-20 06:58:00
2:58 AM,60.6,52.0,73,30.01,10.0,North,4.6,-,N/A,,Clear,10,2013-09-20 07:58:00
3:58 AM,59.5,52.9,79,30.02,10.0,NNE,4.6,-,N/A,,Clear,30,2013-09-20 08:58:00
4:58 AM,58.6,52.5,80,30.04,10.0,North,2.3,-,N/A,,Clear,360,2013-09-20 09:58:00
5:58 AM,57.2,52.7,85,30.05,9.0,North,1.2,-,N/A,,Clear,360,2013-09-20 10:58:00
6:58 AM,55.4,53.2,92,30.08,10.0,Calm,Calm,-,N/A,,Clear,0,2013-09-20 11:58:00
7:58 AM,55.4,52.7,91,30.11,10.0,NNW,4.6,-,N/A,,Clear,330,2013-09-20 12:58:00
8:58 AM,57.7,51.4,79,30.12,10.0,North,5.8,-,N/A,,Clear,350,2013-09-20 13:58:00
9:58 AM,60.8,49.1,65,30.12,10.0,NNW,8.1,-,N/A,,Clear,340,2013-09-20 14:58:00
10:58 AM,63.7,46.4,53,30.12,10.0,NNW,9.2,-,N/A,,Partly Cloudy,340,2013-09-20 15:58:00
11:58 AM,65.7,45.5,48,30.09,10.0,North,9.2,18.4,N/A,,Clear,360,2013-09-20 16:58:00
12:58 PM,68.5,47.7,47,30.08,10.0,North,9.2,-,N/A,,Clear,360,2013-09-20 17:58:00
1:58 PM,70.2,47.5,44,30.05,10.0,NNW,9.2,-,N/A,,Clear,340,2013-09-20 18:58:00
2:58 PM,73.4,46.8,39,30.02,10.0,NNW,11.5,17.3,N/A,,Clear,340,2013-09-20 19:58:00
3:58 PM,74.3,46.6,37,29.99,10.0,NNW,10.4,-,N/A,,Clear,340,2013-09-20 20:58:00
4:58 PM,74.5,46.0,36,29.98,10.0,NNW,12.7,17.3,N/A,,Clear,340,2013-09-20 21:58:00
5:58 PM,73.4,45.1,36,29.98,10.0,NNW,6.9,-,N/A,,Clear,340,2013-09-20 22:58:00
6:58 PM,70.7,47.1,43,29.99,10.0,North,3.5,-,N/A,,Clear,360,2013-09-20 23:58:00
7:58 PM,65.7,48.7,54,30.00,10.0,Calm,Calm,-,N/A,,Clear,0,2013-09-21 00:58:00
8:28 PM,62.6,48.2,59,30.02,2.0,Calm,Calm,-,N/A,,Haze,0,2013-09-21 01:28:00
8:38 PM,62.6,51.8,68,30.02,4.0,Calm,Calm,-,N/A,,Haze,0,2013-09-21 01:38:00
8:48 PM,60.8,50.0,68,30.02,3.0,Calm,Calm,-,N/A,,Haze,0,2013-09-21 01:48:00
8:58 PM,58.3,50.9,76,30.01,9.0,Calm,Calm,-,N/A,,Clear,0,2013-09-21 01:58:00
9:48 PM,57.2,50.0,77,30.02,2.5,Calm,Calm,-,N/A,,Haze,0,2013-09-21 02:48:00
9:58 PM,56.5,50.5,80,30.02,2.5,Calm,Calm,-,N/A,,Haze,0,2013-09-21 02:58:00
10:03 PM,55.4,51.8,88,30.02,5.0,Calm,Calm,-,N/A,,Haze,0,2013-09-21 03:03:00
10:58 PM,54.1,51.1,89,30.02,10.0,Calm,Calm,-,N/A,,Clear,0,2013-09-21 03:58:00
11:58 PM,53.6,50.0,88,30.02,3.0,Calm,Calm,-,N/A,,Clear,0,2013-09-21 04:58:00